sensor_id;sensor_type;location;lat;lon;timestamp;P1;durP1;ratioP1;P2;durP2;ratioP2
72464;SDS011;60471;52.150;4.508;2022-09-24T00:01:24;29.15;;;21.13;;
72464;SDS011;60471;52.150;4.508;2022-09-24T00:03:58;30.58;;;18.17;;
72464;SDS011;60471;52.150;4.508;2022-09-24T00:06:39;32.45;;;18.95;;
72464;SDS011;60471;52.150;4.508;2022-09-24T00:09:11;30.38;;;19.73;;
72464;SDS011;60471;52.150;4.508;2022-09-24T00:11:43;28.58;;;19.52;;
72464;SDS011;60471;52.150;4.508;2022-09-24T00:14:10;29.73;;;19.33;;
72464;SDS011;60471;52.150;4.508;2022-09-24T00:16:37;32.53;;;20.92;;
72464;SDS011;60471;52.150;4.508;2022-09-24T00:19:05;33.10;;;22.55;;
72464;SDS011;60471;52.150;4.508;2022-09-24T00:21:32;31.40;;;21.13;;
72464;SDS011;60471;52.150;4.508;2022-09-24T00:24:02;30.58;;;21.52;;
72464;SDS011;60471;52.150;4.508;2022-09-24T00:26:34;32.17;;;21.55;;
72464;SDS011;60471;52.150;4.508;2022-09-24T00:29:18;35.80;;;21.85;;
72464;SDS011;60471;52.150;4.508;2022-09-24T00:31:47;32.17;;;21.52;;
72464;SDS011;60471;52.150;4.508;2022-09-24T00:34:14;30.45;;;19.88;;
72464;SDS011;60471;52.150;4.508;2022-09-24T00:36:41;31.02;;;21.08;;
72464;SDS011;60471;52.150;4.508;2022-09-24T00:39:07;32.47;;;21.63;;
72464;SDS011;60471;52.150;4.508;2022-09-24T00:41:34;30.45;;;21.23;;
72464;SDS011;60471;52.150;4.508;2022-09-24T00:47:25;33.67;;;21.63;;
72464;SDS011;60471;52.150;4.508;2022-09-24T00:52:59;30.30;;;19.92;;
72464;SDS011;60471;52.150;4.508;2022-09-24T00:55:32;32.83;;;22.20;;
72464;SDS011;60471;52.150;4.508;2022-09-24T00:58:03;33.88;;;22.38;;
72464;SDS011;60471;52.150;4.508;2022-09-24T01:00:33;33.08;;;22.33;;
72464;SDS011;60471;52.150;4.508;2022-09-24T01:03:04;37.17;;;23.17;;
72464;SDS011;60471;52.150;4.508;2022-09-24T01:05:37;34.35;;;23.45;;
72464;SDS011;60471;52.150;4.508;2022-09-24T01:08:05;34.20;;;23.83;;
72464;SDS011;60471;52.150;4.508;2022-09-24T01:10:43;38.72;;;24.73;;
72464;SDS011;60471;52.150;4.508;2022-09-24T01:16:12;41.75;;;27.40;;
72464;SDS011;60471;52.150;4.508;2022-09-24T01:19:08;38.58;;;26.58;;
72464;SDS011;60471;52.150;4.508;2022-09-24T01:21:56;35.85;;;25.45;;
72464;SDS011;60471;52.150;4.508;2022-09-24T01:27:36;40.20;;;26.80;;
72464;SDS011;60471;52.150;4.508;2022-09-24T01:30:27;41.65;;;28.42;;
72464;SDS011;60471;52.150;4.508;2022-09-24T01:32:59;43.27;;;27.83;;
72464;SDS011;60471;52.150;4.508;2022-09-24T01:38:08;46.80;;;29.40;;
72464;SDS011;60471;52.150;4.508;2022-09-24T01:40:42;47.60;;;31.10;;
72464;SDS011;60471;52.150;4.508;2022-09-24T01:43:11;42.75;;;29.20;;
72464;SDS011;60471;52.150;4.508;2022-09-24T01:45:41;44.13;;;28.95;;
72464;SDS011;60471;52.150;4.508;2022-09-24T01:48:07;38.88;;;26.55;;
72464;SDS011;60471;52.150;4.508;2022-09-24T01:50:40;41.00;;;27.23;;
72464;SDS011;60471;52.150;4.508;2022-09-24T01:53:20;41.17;;;27.40;;
72464;SDS011;60471;52.150;4.508;2022-09-24T01:55:58;41.67;;;27.48;;
72464;SDS011;60471;52.150;4.508;2022-09-24T01:58:53;40.00;;;25.90;;
72464;SDS011;60471;52.150;4.508;2022-09-24T02:01:29;43.25;;;27.13;;
72464;SDS011;60471;52.150;4.508;2022-09-24T02:04:05;39.03;;;26.30;;
72464;SDS011;60471;52.150;4.508;2022-09-24T02:06:54;45.15;;;27.60;;
72464;SDS011;60471;52.150;4.508;2022-09-24T02:09:38;42.45;;;27.75;;
72464;SDS011;60471;52.150;4.508;2022-09-24T02:14:44;39.70;;;28.27;;
72464;SDS011;60471;52.150;4.508;2022-09-24T02:17:43;41.75;;;27.75;;
72464;SDS011;60471;52.150;4.508;2022-09-24T02:20:17;45.03;;;28.98;;
72464;SDS011;60471;52.150;4.508;2022-09-24T02:22:48;45.05;;;29.20;;
72464;SDS011;60471;52.150;4.508;2022-09-24T02:25:18;45.17;;;28.30;;
72464;SDS011;60471;52.150;4.508;2022-09-24T02:27:53;38.95;;;28.33;;
72464;SDS011;60471;52.150;4.508;2022-09-24T02:30:19;42.30;;;28.35;;
72464;SDS011;60471;52.150;4.508;2022-09-24T02:32:45;44.05;;;30.02;;
72464;SDS011;60471;52.150;4.508;2022-09-24T02:35:15;46.10;;;30.88;;
72464;SDS011;60471;52.150;4.508;2022-09-24T02:37:42;47.90;;;31.50;;
72464;SDS011;60471;52.150;4.508;2022-09-24T02:40:11;49.70;;;31.95;;
72464;SDS011;60471;52.150;4.508;2022-09-24T02:42:40;50.95;;;31.25;;
72464;SDS011;60471;52.150;4.508;2022-09-24T02:45:08;51.28;;;30.83;;
72464;SDS011;60471;52.150;4.508;2022-09-24T02:47:36;55.47;;;33.22;;
72464;SDS011;60471;52.150;4.508;2022-09-24T02:50:02;54.95;;;33.83;;
72464;SDS011;60471;52.150;4.508;2022-09-24T02:52:29;59.25;;;33.28;;
72464;SDS011;60471;52.150;4.508;2022-09-24T02:54:55;61.25;;;34.25;;
72464;SDS011;60471;52.150;4.508;2022-09-24T02:57:22;62.63;;;36.67;;
72464;SDS011;60471;52.150;4.508;2022-09-24T02:59:48;54.60;;;34.63;;
72464;SDS011;60471;52.150;4.508;2022-09-24T03:02:14;57.47;;;34.22;;
72464;SDS011;60471;52.150;4.508;2022-09-24T03:04:40;58.42;;;34.83;;
72464;SDS011;60471;52.150;4.508;2022-09-24T03:07:07;55.13;;;32.88;;
72464;SDS011;60471;52.150;4.508;2022-09-24T03:09:34;53.53;;;32.83;;
72464;SDS011;60471;52.150;4.508;2022-09-24T03:12:01;56.78;;;34.42;;
72464;SDS011;60471;52.150;4.508;2022-09-24T03:14:27;53.80;;;33.53;;
72464;SDS011;60471;52.150;4.508;2022-09-24T03:16:53;55.90;;;34.97;;
72464;SDS011;60471;52.150;4.508;2022-09-24T03:19:19;56.33;;;34.08;;
72464;SDS011;60471;52.150;4.508;2022-09-24T03:21:46;56.40;;;34.22;;
72464;SDS011;60471;52.150;4.508;2022-09-24T03:24:12;55.45;;;33.15;;
72464;SDS011;60471;52.150;4.508;2022-09-24T03:26:38;52.47;;;32.28;;
72464;SDS011;60471;52.150;4.508;2022-09-24T03:29:04;58.03;;;34.20;;
72464;SDS011;60471;52.150;4.508;2022-09-24T03:31:31;54.97;;;33.90;;
72464;SDS011;60471;52.150;4.508;2022-09-24T03:33:57;50.42;;;32.78;;
72464;SDS011;60471;52.150;4.508;2022-09-24T03:36:24;51.60;;;31.60;;
72464;SDS011;60471;52.150;4.508;2022-09-24T03:38:52;54.55;;;32.47;;
72464;SDS011;60471;52.150;4.508;2022-09-24T03:41:21;51.25;;;32.33;;
72464;SDS011;60471;52.150;4.508;2022-09-24T03:43:50;59.00;;;34.70;;
72464;SDS011;60471;52.150;4.508;2022-09-24T03:46:16;52.20;;;33.13;;
72464;SDS011;60471;52.150;4.508;2022-09-24T03:48:43;57.20;;;33.47;;
72464;SDS011;60471;52.150;4.508;2022-09-24T03:51:13;58.22;;;33.97;;
72464;SDS011;60471;52.150;4.508;2022-09-24T03:53:43;59.03;;;34.67;;
72464;SDS011;60471;52.150;4.508;2022-09-24T03:56:10;61.28;;;34.88;;
72464;SDS011;60471;52.150;4.508;2022-09-24T03:58:37;50.33;;;30.98;;
72464;SDS011;60471;52.150;4.508;2022-09-24T04:01:05;48.45;;;30.75;;
72464;SDS011;60471;52.150;4.508;2022-09-24T04:03:36;51.83;;;33.35;;
72464;SDS011;60471;52.150;4.508;2022-09-24T04:06:03;48.50;;;28.85;;
72464;SDS011;60471;52.150;4.508;2022-09-24T04:08:31;53.35;;;31.67;;
72464;SDS011;60471;52.150;4.508;2022-09-24T04:10:57;56.78;;;32.33;;
72464;SDS011;60471;52.150;4.508;2022-09-24T04:13:24;53.30;;;33.30;;
72464;SDS011;60471;52.150;4.508;2022-09-24T04:15:50;50.78;;;31.83;;
72464;SDS011;60471;52.150;4.508;2022-09-24T04:18:18;51.65;;;33.00;;
72464;SDS011;60471;52.150;4.508;2022-09-24T04:20:44;59.35;;;33.90;;
72464;SDS011;60471;52.150;4.508;2022-09-24T04:23:11;54.88;;;33.45;;
72464;SDS011;60471;52.150;4.508;2022-09-24T04:25:38;63.53;;;38.03;;
72464;SDS011;60471;52.150;4.508;2022-09-24T04:28:07;54.63;;;33.05;;
72464;SDS011;60471;52.150;4.508;2022-09-24T04:30:35;52.88;;;33.42;;
72464;SDS011;60471;52.150;4.508;2022-09-24T04:33:02;51.13;;;32.58;;
72464;SDS011;60471;52.150;4.508;2022-09-24T04:35:30;43.42;;;27.48;;
72464;SDS011;60471;52.150;4.508;2022-09-24T04:38:01;44.28;;;27.95;;
72464;SDS011;60471;52.150;4.508;2022-09-24T04:40:29;43.90;;;28.98;;
72464;SDS011;60471;52.150;4.508;2022-09-24T04:42:55;51.88;;;27.70;;
72464;SDS011;60471;52.150;4.508;2022-09-24T04:45:22;37.95;;;20.30;;
72464;SDS011;60471;52.150;4.508;2022-09-24T04:47:49;27.77;;;15.73;;
72464;SDS011;60471;52.150;4.508;2022-09-24T04:50:23;23.40;;;12.70;;
72464;SDS011;60471;52.150;4.508;2022-09-24T04:52:53;22.83;;;10.77;;
72464;SDS011;60471;52.150;4.508;2022-09-24T04:55:21;18.45;;;9.73;;
72464;SDS011;60471;52.150;4.508;2022-09-24T04:57:48;19.85;;;8.23;;
72464;SDS011;60471;52.150;4.508;2022-09-24T05:00:16;19.08;;;8.25;;
72464;SDS011;60471;52.150;4.508;2022-09-24T05:02:45;14.15;;;6.75;;
72464;SDS011;60471;52.150;4.508;2022-09-24T05:05:12;16.67;;;8.27;;
72464;SDS011;60471;52.150;4.508;2022-09-24T05:07:40;16.77;;;6.53;;
72464;SDS011;60471;52.150;4.508;2022-09-24T05:10:07;17.52;;;7.88;;
72464;SDS011;60471;52.150;4.508;2022-09-24T05:12:33;14.70;;;5.05;;
72464;SDS011;60471;52.150;4.508;2022-09-24T05:15:01;10.55;;;4.43;;
72464;SDS011;60471;52.150;4.508;2022-09-24T05:17:28;13.43;;;4.82;;
72464;SDS011;60471;52.150;4.508;2022-09-24T05:19:55;13.27;;;4.15;;
72464;SDS011;60471;52.150;4.508;2022-09-24T05:22:23;10.63;;;3.42;;
72464;SDS011;60471;52.150;4.508;2022-09-24T05:24:50;10.73;;;3.50;;
72464;SDS011;60471;52.150;4.508;2022-09-24T05:27:16;47.63;;;26.23;;
72464;SDS011;60471;52.150;4.508;2022-09-24T05:29:44;15.30;;;6.18;;
72464;SDS011;60471;52.150;4.508;2022-09-24T05:32:12;9.52;;;2.72;;
72464;SDS011;60471;52.150;4.508;2022-09-24T05:34:42;13.20;;;2.78;;
72464;SDS011;60471;52.150;4.508;2022-09-24T05:37:09;9.63;;;2.85;;
72464;SDS011;60471;52.150;4.508;2022-09-24T05:39:37;11.38;;;2.75;;
72464;SDS011;60471;52.150;4.508;2022-09-24T05:42:04;13.75;;;3.28;;
72464;SDS011;60471;52.150;4.508;2022-09-24T05:44:31;12.70;;;2.88;;
72464;SDS011;60471;52.150;4.508;2022-09-24T05:46:57;12.40;;;3.20;;
72464;SDS011;60471;52.150;4.508;2022-09-24T05:49:24;16.75;;;3.40;;
72464;SDS011;60471;52.150;4.508;2022-09-24T05:51:50;12.73;;;3.25;;
72464;SDS011;60471;52.150;4.508;2022-09-24T05:54:17;13.93;;;5.53;;
72464;SDS011;60471;52.150;4.508;2022-09-24T05:56:44;18.23;;;4.60;;
72464;SDS011;60471;52.150;4.508;2022-09-24T05:59:11;11.57;;;3.58;;
72464;SDS011;60471;52.150;4.508;2022-09-24T06:01:37;15.80;;;2.92;;
72464;SDS011;60471;52.150;4.508;2022-09-24T06:04:04;17.52;;;3.58;;
72464;SDS011;60471;52.150;4.508;2022-09-24T06:06:30;13.60;;;2.75;;
72464;SDS011;60471;52.150;4.508;2022-09-24T06:08:56;16.85;;;3.10;;
72464;SDS011;60471;52.150;4.508;2022-09-24T06:11:23;12.60;;;2.83;;
72464;SDS011;60471;52.150;4.508;2022-09-24T06:13:49;13.77;;;3.33;;
72464;SDS011;60471;52.150;4.508;2022-09-24T06:16:16;17.35;;;3.08;;
72464;SDS011;60471;52.150;4.508;2022-09-24T06:18:43;15.20;;;4.13;;
72464;SDS011;60471;52.150;4.508;2022-09-24T06:21:10;17.80;;;4.50;;
72464;SDS011;60471;52.150;4.508;2022-09-24T06:23:40;14.70;;;3.58;;
72464;SDS011;60471;52.150;4.508;2022-09-24T06:26:09;14.45;;;3.28;;
72464;SDS011;60471;52.150;4.508;2022-09-24T06:28:38;17.48;;;3.83;;
72464;SDS011;60471;52.150;4.508;2022-09-24T06:31:06;15.75;;;3.55;;
72464;SDS011;60471;52.150;4.508;2022-09-24T06:33:34;16.27;;;3.15;;
72464;SDS011;60471;52.150;4.508;2022-09-24T06:36:01;17.98;;;3.53;;
72464;SDS011;60471;52.150;4.508;2022-09-24T06:38:29;14.48;;;2.97;;
72464;SDS011;60471;52.150;4.508;2022-09-24T06:40:59;22.73;;;4.15;;
72464;SDS011;60471;52.150;4.508;2022-09-24T06:43:28;19.90;;;4.00;;
72464;SDS011;60471;52.150;4.508;2022-09-24T06:45:57;17.27;;;3.33;;
72464;SDS011;60471;52.150;4.508;2022-09-24T06:48:25;42.90;;;18.88;;
72464;SDS011;60471;52.150;4.508;2022-09-24T06:50:53;20.27;;;4.43;;
72464;SDS011;60471;52.150;4.508;2022-09-24T06:53:20;14.23;;;3.33;;
72464;SDS011;60471;52.150;4.508;2022-09-24T06:55:47;15.82;;;2.70;;
72464;SDS011;60471;52.150;4.508;2022-09-24T06:58:14;15.15;;;3.47;;
72464;SDS011;60471;52.150;4.508;2022-09-24T07:00:54;19.25;;;2.72;;
72464;SDS011;60471;52.150;4.508;2022-09-24T07:03:23;14.50;;;2.97;;
72464;SDS011;60471;52.150;4.508;2022-09-24T07:05:51;17.38;;;2.50;;
72464;SDS011;60471;52.150;4.508;2022-09-24T07:08:18;14.73;;;2.70;;
72464;SDS011;60471;52.150;4.508;2022-09-24T07:10:45;17.63;;;3.05;;
72464;SDS011;60471;52.150;4.508;2022-09-24T07:13:17;14.38;;;2.70;;
72464;SDS011;60471;52.150;4.508;2022-09-24T07:15:46;16.70;;;3.00;;
72464;SDS011;60471;52.150;4.508;2022-09-24T07:18:15;12.65;;;2.40;;
72464;SDS011;60471;52.150;4.508;2022-09-24T07:20:43;20.70;;;2.75;;
72464;SDS011;60471;52.150;4.508;2022-09-24T07:23:15;20.05;;;2.40;;
72464;SDS011;60471;52.150;4.508;2022-09-24T07:25:43;20.13;;;2.55;;
72464;SDS011;60471;52.150;4.508;2022-09-24T07:28:10;19.38;;;3.00;;
72464;SDS011;60471;52.150;4.508;2022-09-24T07:30:40;16.20;;;2.40;;
72464;SDS011;60471;52.150;4.508;2022-09-24T07:33:07;20.35;;;2.85;;
72464;SDS011;60471;52.150;4.508;2022-09-24T07:35:36;20.17;;;2.60;;
72464;SDS011;60471;52.150;4.508;2022-09-24T07:38:05;18.45;;;3.42;;
72464;SDS011;60471;52.150;4.508;2022-09-24T07:40:36;17.38;;;2.92;;
72464;SDS011;60471;52.150;4.508;2022-09-24T07:43:03;17.77;;;2.50;;
72464;SDS011;60471;52.150;4.508;2022-09-24T07:45:31;20.67;;;3.13;;
72464;SDS011;60471;52.150;4.508;2022-09-24T07:48:02;22.52;;;3.45;;
72464;SDS011;60471;52.150;4.508;2022-09-24T07:52:58;15.82;;;2.53;;
72464;SDS011;60471;52.150;4.508;2022-09-24T07:55:25;16.63;;;2.83;;
72464;SDS011;60471;52.150;4.508;2022-09-24T07:57:52;13.57;;;2.42;;
72464;SDS011;60471;52.150;4.508;2022-09-24T08:00:21;18.10;;;2.85;;
72464;SDS011;60471;52.150;4.508;2022-09-24T08:02:49;15.48;;;2.33;;
72464;SDS011;60471;52.150;4.508;2022-09-24T08:05:17;21.58;;;3.15;;
72464;SDS011;60471;52.150;4.508;2022-09-24T08:07:51;16.35;;;2.67;;
72464;SDS011;60471;52.150;4.508;2022-09-24T08:10:19;21.90;;;3.25;;
72464;SDS011;60471;52.150;4.508;2022-09-24T08:12:46;17.13;;;2.50;;
72464;SDS011;60471;52.150;4.508;2022-09-24T08:15:13;15.30;;;2.50;;
72464;SDS011;60471;52.150;4.508;2022-09-24T08:17:40;19.67;;;3.20;;
72464;SDS011;60471;52.150;4.508;2022-09-24T08:20:07;17.45;;;2.50;;
72464;SDS011;60471;52.150;4.508;2022-09-24T08:22:34;15.20;;;2.97;;
72464;SDS011;60471;52.150;4.508;2022-09-24T08:25:00;12.93;;;2.30;;
72464;SDS011;60471;52.150;4.508;2022-09-24T08:27:29;26.30;;;3.10;;
72464;SDS011;60471;52.150;4.508;2022-09-24T08:29:57;11.98;;;2.05;;
72464;SDS011;60471;52.150;4.508;2022-09-24T08:32:26;13.77;;;2.28;;
72464;SDS011;60471;52.150;4.508;2022-09-24T08:34:54;18.65;;;2.38;;
72464;SDS011;60471;52.150;4.508;2022-09-24T08:37:20;18.27;;;2.30;;
72464;SDS011;60471;52.150;4.508;2022-09-24T08:39:46;13.35;;;2.30;;
72464;SDS011;60471;52.150;4.508;2022-09-24T08:42:36;16.42;;;2.38;;
72464;SDS011;60471;52.150;4.508;2022-09-24T08:45:09;14.52;;;2.10;;
72464;SDS011;60471;52.150;4.508;2022-09-24T08:50:53;16.03;;;2.60;;
72464;SDS011;60471;52.150;4.508;2022-09-24T08:56:23;16.90;;;3.28;;
72464;SDS011;60471;52.150;4.508;2022-09-24T08:58:56;12.27;;;2.53;;
72464;SDS011;60471;52.150;4.508;2022-09-24T09:10:07;13.57;;;2.30;;
72464;SDS011;60471;52.150;4.508;2022-09-24T09:15:19;16.52;;;1.90;;
72464;SDS011;60471;52.150;4.508;2022-09-24T09:18:00;13.32;;;2.03;;
72464;SDS011;60471;52.150;4.508;2022-09-24T09:20:45;15.80;;;2.30;;
72464;SDS011;60471;52.150;4.508;2022-09-24T09:23:15;15.23;;;1.73;;
72464;SDS011;60471;52.150;4.508;2022-09-24T09:25:47;13.43;;;2.30;;
72464;SDS011;60471;52.150;4.508;2022-09-24T09:28:20;14.00;;;2.05;;
72464;SDS011;60471;52.150;4.508;2022-09-24T09:33:27;16.90;;;2.08;;
72464;SDS011;60471;52.150;4.508;2022-09-24T09:45:01;15.90;;;1.90;;
72464;SDS011;60471;52.150;4.508;2022-09-24T09:47:54;11.88;;;1.83;;
72464;SDS011;60471;52.150;4.508;2022-09-24T09:53:25;10.57;;;1.65;;
72464;SDS011;60471;52.150;4.508;2022-09-24T09:56:05;10.18;;;1.92;;
72464;SDS011;60471;52.150;4.508;2022-09-24T09:58:33;12.80;;;2.03;;
72464;SDS011;60471;52.150;4.508;2022-09-24T10:06:27;10.70;;;1.67;;
72464;SDS011;60471;52.150;4.508;2022-09-24T10:09:15;13.80;;;1.90;;
72464;SDS011;60471;52.150;4.508;2022-09-24T10:11:45;10.80;;;1.65;;
72464;SDS011;60471;52.150;4.508;2022-09-24T10:14:13;12.73;;;1.90;;
72464;SDS011;60471;52.150;4.508;2022-09-24T10:16:44;11.73;;;1.85;;
72464;SDS011;60471;52.150;4.508;2022-09-24T10:19:19;15.65;;;2.17;;
72464;SDS011;60471;52.150;4.508;2022-09-24T10:21:49;10.93;;;1.92;;
72464;SDS011;60471;52.150;4.508;2022-09-24T10:24:21;13.13;;;2.55;;
72464;SDS011;60471;52.150;4.508;2022-09-24T10:26:51;12.65;;;2.03;;
72464;SDS011;60471;52.150;4.508;2022-09-24T10:29:20;12.70;;;1.67;;
72464;SDS011;60471;52.150;4.508;2022-09-24T10:32:19;9.90;;;1.95;;
72464;SDS011;60471;52.150;4.508;2022-09-24T10:37:57;12.45;;;1.88;;
72464;SDS011;60471;52.150;4.508;2022-09-24T10:40:26;15.63;;;2.25;;
72464;SDS011;60471;52.150;4.508;2022-09-24T10:43:04;13.48;;;2.17;;
72464;SDS011;60471;52.150;4.508;2022-09-24T10:48:44;16.95;;;1.75;;
72464;SDS011;60471;52.150;4.508;2022-09-24T10:54:56;13.98;;;1.85;;
72464;SDS011;60471;52.150;4.508;2022-09-24T11:00:38;14.45;;;2.38;;
72464;SDS011;60471;52.150;4.508;2022-09-24T11:06:15;11.82;;;1.27;;
72464;SDS011;60471;52.150;4.508;2022-09-24T11:09:07;13.40;;;1.45;;
72464;SDS011;60471;52.150;4.508;2022-09-24T11:11:45;12.73;;;2.13;;
72464;SDS011;60471;52.150;4.508;2022-09-24T11:20:35;10.35;;;1.42;;
72464;SDS011;60471;52.150;4.508;2022-09-24T11:26:15;9.40;;;1.67;;
72464;SDS011;60471;52.150;4.508;2022-09-24T11:31:51;11.45;;;1.85;;
72464;SDS011;60471;52.150;4.508;2022-09-24T11:40:29;11.48;;;2.42;;
72464;SDS011;60471;52.150;4.508;2022-09-24T11:50:05;11.35;;;1.60;;
72464;SDS011;60471;52.150;4.508;2022-09-24T11:52:53;11.35;;;1.67;;
72464;SDS011;60471;52.150;4.508;2022-09-24T11:55:36;10.38;;;1.70;;
72464;SDS011;60471;52.150;4.508;2022-09-24T11:58:26;14.40;;;2.22;;
72464;SDS011;60471;52.150;4.508;2022-09-24T12:01:13;10.47;;;1.73;;
72464;SDS011;60471;52.150;4.508;2022-09-24T12:03:57;13.25;;;2.15;;
72464;SDS011;60471;52.150;4.508;2022-09-24T12:06:47;8.85;;;1.70;;
72464;SDS011;60471;52.150;4.508;2022-09-24T12:11:58;12.38;;;1.90;;
72464;SDS011;60471;52.150;4.508;2022-09-24T12:15:05;11.90;;;1.90;;
72464;SDS011;60471;52.150;4.508;2022-09-24T12:21:01;11.57;;;1.80;;
72464;SDS011;60471;52.150;4.508;2022-09-24T12:23:24;12.13;;;2.00;;
72464;SDS011;60471;52.150;4.508;2022-09-24T12:25:56;15.90;;;2.25;;
72464;SDS011;60471;52.150;4.508;2022-09-24T12:28:28;12.45;;;2.00;;
72464;SDS011;60471;52.150;4.508;2022-09-24T12:35:01;10.88;;;1.80;;
72464;SDS011;60471;52.150;4.508;2022-09-24T12:46:44;9.50;;;1.60;;
72464;SDS011;60471;52.150;4.508;2022-09-24T12:49:35;10.45;;;1.77;;
72464;SDS011;60471;52.150;4.508;2022-09-24T12:55:23;12.90;;;1.80;;
72464;SDS011;60471;52.150;4.508;2022-09-24T12:57:57;9.75;;;1.40;;
72464;SDS011;60471;52.150;4.508;2022-09-24T13:02:57;10.15;;;1.52;;
72464;SDS011;60471;52.150;4.508;2022-09-24T13:05:26;7.93;;;1.35;;
72464;SDS011;60471;52.150;4.508;2022-09-24T13:10:51;10.40;;;1.60;;
72464;SDS011;60471;52.150;4.508;2022-09-24T13:13:47;11.55;;;1.60;;
72464;SDS011;60471;52.150;4.508;2022-09-24T13:16:38;13.95;;;1.40;;
72464;SDS011;60471;52.150;4.508;2022-09-24T13:19:18;8.73;;;1.42;;
72464;SDS011;60471;52.150;4.508;2022-09-24T13:22:24;7.75;;;1.30;;
72464;SDS011;60471;52.150;4.508;2022-09-24T13:27:36;9.10;;;1.30;;
72464;SDS011;60471;52.150;4.508;2022-09-24T13:30:16;11.20;;;1.30;;
72464;SDS011;60471;52.150;4.508;2022-09-24T13:32:56;9.13;;;1.30;;
72464;SDS011;60471;52.150;4.508;2022-09-24T13:35:30;8.65;;;1.33;;
72464;SDS011;60471;52.150;4.508;2022-09-24T13:38:14;10.48;;;1.50;;
72464;SDS011;60471;52.150;4.508;2022-09-24T13:40:52;8.23;;;1.35;;
72464;SDS011;60471;52.150;4.508;2022-09-24T13:46:25;11.43;;;1.63;;
72464;SDS011;60471;52.150;4.508;2022-09-24T13:48:55;14.07;;;1.33;;
72464;SDS011;60471;52.150;4.508;2022-09-24T13:51:32;11.80;;;1.90;;
72464;SDS011;60471;52.150;4.508;2022-09-24T13:54:10;9.63;;;1.33;;
72464;SDS011;60471;52.150;4.508;2022-09-24T13:56:58;12.00;;;2.40;;
72464;SDS011;60471;52.150;4.508;2022-09-24T13:59:36;13.98;;;4.10;;
72464;SDS011;60471;52.150;4.508;2022-09-24T14:02:03;10.77;;;2.13;;
72464;SDS011;60471;52.150;4.508;2022-09-24T14:04:51;8.10;;;1.67;;
72464;SDS011;60471;52.150;4.508;2022-09-24T14:07:24;10.63;;;2.22;;
72464;SDS011;60471;52.150;4.508;2022-09-24T14:10:05;11.65;;;1.50;;
72464;SDS011;60471;52.150;4.508;2022-09-24T14:12:39;8.82;;;1.25;;
72464;SDS011;60471;52.150;4.508;2022-09-24T14:15:09;12.23;;;2.33;;
72464;SDS011;60471;52.150;4.508;2022-09-24T14:17:41;15.13;;;2.10;;
72464;SDS011;60471;52.150;4.508;2022-09-24T14:20:13;16.88;;;2.45;;
72464;SDS011;60471;52.150;4.508;2022-09-24T14:22:41;8.77;;;1.55;;
72464;SDS011;60471;52.150;4.508;2022-09-24T14:25:14;15.32;;;1.67;;
72464;SDS011;60471;52.150;4.508;2022-09-24T14:27:49;9.45;;;1.63;;
72464;SDS011;60471;52.150;4.508;2022-09-24T14:32:50;11.52;;;1.58;;
72464;SDS011;60471;52.150;4.508;2022-09-24T14:35:43;9.77;;;2.03;;
72464;SDS011;60471;52.150;4.508;2022-09-24T14:38:13;7.78;;;1.30;;
72464;SDS011;60471;52.150;4.508;2022-09-24T14:40:48;9.02;;;1.35;;
72464;SDS011;60471;52.150;4.508;2022-09-24T14:43:25;6.57;;;1.23;;
72464;SDS011;60471;52.150;4.508;2022-09-24T14:49:58;7.00;;;1.35;;
72464;SDS011;60471;52.150;4.508;2022-09-24T14:51:57;11.88;;;1.42;;
72464;SDS011;60471;52.150;4.508;2022-09-24T14:54:30;12.27;;;1.38;;
72464;SDS011;60471;52.150;4.508;2022-09-24T14:57:09;10.75;;;1.50;;
72464;SDS011;60471;52.150;4.508;2022-09-24T14:59:41;11.40;;;1.90;;
72464;SDS011;60471;52.150;4.508;2022-09-24T15:04:57;10.98;;;1.70;;
72464;SDS011;60471;52.150;4.508;2022-09-24T15:07:28;6.40;;;1.30;;
72464;SDS011;60471;52.150;4.508;2022-09-24T15:09:57;11.65;;;1.75;;
72464;SDS011;60471;52.150;4.508;2022-09-24T15:17:33;8.90;;;1.40;;
72464;SDS011;60471;52.150;4.508;2022-09-24T15:20:01;9.52;;;1.60;;
72464;SDS011;60471;52.150;4.508;2022-09-24T15:22:29;10.95;;;1.40;;
72464;SDS011;60471;52.150;4.508;2022-09-24T15:24:56;12.70;;;1.92;;
72464;SDS011;60471;52.150;4.508;2022-09-24T15:27:27;12.20;;;1.67;;
72464;SDS011;60471;52.150;4.508;2022-09-24T15:30:03;9.07;;;1.52;;
72464;SDS011;60471;52.150;4.508;2022-09-24T15:32:32;10.43;;;1.80;;
72464;SDS011;60471;52.150;4.508;2022-09-24T15:35:00;8.95;;;1.60;;
72464;SDS011;60471;52.150;4.508;2022-09-24T15:37:33;11.18;;;1.80;;
72464;SDS011;60471;52.150;4.508;2022-09-24T15:40:05;9.10;;;1.25;;
72464;SDS011;60471;52.150;4.508;2022-09-24T15:42:45;8.70;;;1.65;;
72464;SDS011;60471;52.150;4.508;2022-09-24T15:45:15;12.93;;;1.80;;
72464;SDS011;60471;52.150;4.508;2022-09-24T15:47:47;7.95;;;1.20;;
72464;SDS011;60471;52.150;4.508;2022-09-24T15:50:16;8.98;;;1.58;;
72464;SDS011;60471;52.150;4.508;2022-09-24T15:52:45;11.30;;;1.80;;
72464;SDS011;60471;52.150;4.508;2022-09-24T15:55:18;10.02;;;1.63;;
72464;SDS011;60471;52.150;4.508;2022-09-24T15:57:47;8.65;;;1.92;;
72464;SDS011;60471;52.150;4.508;2022-09-24T16:00:14;11.55;;;2.05;;
72464;SDS011;60471;52.150;4.508;2022-09-24T16:02:46;7.00;;;1.80;;
72464;SDS011;60471;52.150;4.508;2022-09-24T16:05:17;10.15;;;1.85;;
72464;SDS011;60471;52.150;4.508;2022-09-24T16:07:44;15.52;;;3.35;;
72464;SDS011;60471;52.150;4.508;2022-09-24T16:10:11;13.25;;;1.95;;
72464;SDS011;60471;52.150;4.508;2022-09-24T16:12:40;6.15;;;1.20;;
72464;SDS011;60471;52.150;4.508;2022-09-24T16:15:10;14.50;;;1.50;;
72464;SDS011;60471;52.150;4.508;2022-09-24T16:17:40;7.15;;;1.35;;
72464;SDS011;60471;52.150;4.508;2022-09-24T16:20:07;12.90;;;1.60;;
72464;SDS011;60471;52.150;4.508;2022-09-24T16:22:37;9.45;;;1.77;;
72464;SDS011;60471;52.150;4.508;2022-09-24T16:25:03;19.15;;;8.52;;
72464;SDS011;60471;52.150;4.508;2022-09-24T16:27:31;7.55;;;1.73;;
72464;SDS011;60471;52.150;4.508;2022-09-24T16:30:00;8.73;;;1.38;;
72464;SDS011;60471;52.150;4.508;2022-09-24T16:32:27;8.15;;;2.20;;
72464;SDS011;60471;52.150;4.508;2022-09-24T16:34:53;7.43;;;1.45;;
72464;SDS011;60471;52.150;4.508;2022-09-24T16:37:21;6.97;;;1.60;;
72464;SDS011;60471;52.150;4.508;2022-09-24T16:39:48;11.15;;;1.55;;
72464;SDS011;60471;52.150;4.508;2022-09-24T16:42:15;10.50;;;1.52;;
72464;SDS011;60471;52.150;4.508;2022-09-24T16:44:41;16.08;;;1.50;;
72464;SDS011;60471;52.150;4.508;2022-09-24T16:47:07;10.00;;;1.58;;
72464;SDS011;60471;52.150;4.508;2022-09-24T16:49:33;10.65;;;1.75;;
72464;SDS011;60471;52.150;4.508;2022-09-24T16:52:00;11.90;;;2.15;;
72464;SDS011;60471;52.150;4.508;2022-09-24T16:54:26;11.68;;;1.50;;
72464;SDS011;60471;52.150;4.508;2022-09-24T16:56:57;9.27;;;1.30;;
72464;SDS011;60471;52.150;4.508;2022-09-24T16:59:23;10.23;;;1.63;;
72464;SDS011;60471;52.150;4.508;2022-09-24T17:01:49;11.23;;;1.85;;
72464;SDS011;60471;52.150;4.508;2022-09-24T17:04:16;10.85;;;1.83;;
72464;SDS011;60471;52.150;4.508;2022-09-24T17:06:42;10.45;;;1.60;;
72464;SDS011;60471;52.150;4.508;2022-09-24T17:09:12;14.98;;;1.70;;
72464;SDS011;60471;52.150;4.508;2022-09-24T17:11:57;7.78;;;1.63;;
72464;SDS011;60471;52.150;4.508;2022-09-24T17:14:23;18.48;;;7.03;;
72464;SDS011;60471;52.150;4.508;2022-09-24T17:16:49;8.45;;;1.88;;
72464;SDS011;60471;52.150;4.508;2022-09-24T17:19:16;13.85;;;1.60;;
72464;SDS011;60471;52.150;4.508;2022-09-24T17:21:42;7.53;;;1.50;;
72464;SDS011;60471;52.150;4.508;2022-09-24T17:24:10;10.80;;;1.65;;